Carthage, South Dakota
Current Conditions -  °F | °C
As of 11:55 AM on Sunday 25 Jan 2015 (Local Time) from KHON Reporting Station
Overcast Overcast  
Wind Chill: 23°   Ceiling: 700
Heat Index: 31°   Visibility: 10mi
Dew Point: 28°   Wind: 8mph
Humidity: 89%   Direction: 320°NW
Pressure: 30.05"   Gusts: NA
Location:  44.17°N, 97.72°W
Report Text: KHON 251755Z AUTO 32007KT 10SM BKN007 BKN016 OVC055 M01/M02 A3005 RMK AO2 SLP190 T10061022 11006 21011 51018
Loading
Personal Weather Stations






























Interactive Weather Map New forecast layout! Learn more

10-Day Weather Forecast

Advertisements
Track Severe Weather on mobile